createdAt,value
2023-01-30T00:01:53.512Z,22.77
2023-01-30T00:04:20.473Z,21.77
2023-01-30T00:06:47.600Z,23.10
2023-01-30T00:09:15.185Z,22.97
2023-01-30T00:11:42.576Z,23.60
2023-01-30T00:14:10.007Z,21.37
2023-01-30T00:16:37.179Z,25.23
2023-01-30T00:19:04.269Z,23.13
2023-01-30T00:21:31.229Z,22.60
2023-01-30T00:23:59.826Z,22.83
2023-01-30T00:26:27.209Z,24.40
2023-01-30T00:28:54.223Z,22.20
2023-01-30T00:31:21.173Z,23.80
2023-01-30T00:33:50.478Z,23.73
2023-01-30T00:36:17.472Z,25.07
2023-01-30T00:38:44.417Z,22.23
2023-01-30T00:41:13.593Z,21.27
2023-01-30T00:44:00.264Z,22.83
2023-01-30T00:46:50.414Z,20.17
2023-01-30T00:49:18.009Z,22.90
2023-01-30T00:51:45.138Z,23.37
2023-01-30T00:54:13.302Z,21.37
2023-01-30T00:56:40.210Z,23.17
2023-01-30T00:59:07.264Z,22.83
2023-01-30T01:01:34.304Z,23.17
2023-01-30T01:04:01.915Z,22.87
2023-01-30T01:06:28.873Z,21.73
2023-01-30T01:08:56.734Z,23.47
2023-01-30T01:11:26.782Z,23.47
2023-01-30T01:14:00.004Z,23.73
2023-01-30T01:16:29.703Z,22.77
2023-01-30T01:18:58.742Z,22.23
2023-01-30T01:21:25.745Z,22.17
2023-01-30T01:23:57.734Z,22.93
2023-01-30T01:26:24.793Z,23.13
2023-01-30T01:28:55.951Z,23.33
2023-01-30T01:31:24.258Z,22.77
2023-01-30T01:33:52.080Z,21.67
2023-01-30T01:36:42.417Z,24.50
2023-01-30T01:39:06.312Z,22.97
2023-01-30T01:41:33.211Z,23.70
2023-01-30T01:44:02.810Z,24.10
2023-01-30T01:46:50.298Z,21.97
2023-01-30T01:49:27.764Z,21.30
2023-01-30T01:52:08.014Z,22.93
2023-01-30T01:54:40.925Z,21.43
2023-01-30T01:57:15.833Z,23.03
2023-01-30T01:59:57.438Z,23.20
2023-01-30T02:02:24.481Z,22.77
2023-01-30T02:05:03.537Z,21.80
2023-01-30T02:07:53.170Z,22.17
2023-01-30T02:10:45.394Z,24.03
2023-01-30T02:13:12.477Z,20.53
2023-01-30T02:15:39.895Z,21.87
2023-01-30T02:18:07.702Z,22.10
2023-01-30T02:20:46.888Z,23.00
2023-01-30T02:23:29.004Z,22.13
2023-01-30T02:26:33.672Z,24.10
2023-01-30T02:29:32.609Z,21.20
2023-01-30T02:32:05.611Z,23.43
2023-01-30T02:34:54.864Z,22.23
2023-01-30T02:37:38.005Z,24.30
2023-01-30T02:40:10.859Z,23.20
2023-01-30T02:42:59.563Z,23.40
2023-01-30T02:45:26.620Z,24.63
2023-01-30T02:48:02.372Z,23.77
2023-01-30T02:50:40.764Z,23.60
2023-01-30T02:53:08.586Z,23.47
2023-01-30T02:55:36.434Z,24.03
2023-01-30T02:58:05.199Z,25.30
2023-01-30T03:01:03.717Z,25.13
2023-01-30T03:04:05.232Z,25.40
2023-01-30T03:07:02.883Z,27.43
2023-01-30T03:09:54.700Z,25.53
2023-01-30T03:12:47.219Z,25.63
2023-01-30T03:15:22.910Z,25.87
2023-01-30T03:17:50.222Z,26.63
2023-01-30T03:20:19.855Z,30.53
2023-01-30T03:22:47.133Z,26.07
2023-01-30T03:25:21.015Z,26.57
2023-01-30T03:27:50.442Z,28.80
2023-01-30T03:30:18.143Z,29.23
2023-01-30T03:32:45.078Z,25.53
2023-01-30T03:35:13.086Z,28.67
2023-01-30T03:37:40.036Z,30.50
2023-01-30T03:40:07.910Z,29.87
2023-01-30T03:42:34.815Z,28.33
2023-01-30T03:45:01.797Z,28.07
2023-01-30T03:47:28.847Z,26.90
2023-01-30T03:49:56.155Z,28.03
2023-01-30T03:52:23.843Z,27.40
2023-01-30T03:54:50.889Z,28.03
2023-01-30T03:57:17.946Z,28.73
2023-01-30T03:59:45.011Z,30.80
2023-01-30T04:02:15.068Z,29.50
2023-01-30T04:04:43.917Z,28.87
2023-01-30T04:07:11.627Z,28.23
2023-01-30T04:09:39.924Z,28.30
2023-01-30T04:12:07.668Z,28.67
2023-01-30T04:14:40.107Z,27.93
2023-01-30T04:17:22.296Z,27.83
2023-01-30T04:20:10.303Z,28.27
2023-01-30T04:22:39.974Z,28.60
2023-01-30T04:25:07.135Z,27.63
2023-01-30T04:27:34.114Z,27.33
2023-01-30T04:30:13.445Z,29.37
2023-01-30T04:32:41.212Z,29.90
2023-01-30T04:35:10.973Z,28.73
2023-01-30T04:37:39.056Z,25.80
2023-01-30T04:40:07.468Z,27.10
2023-01-30T04:42:35.328Z,29.20
2023-01-30T04:45:21.095Z,29.07
2023-01-30T04:47:50.066Z,29.47
2023-01-30T04:50:17.135Z,28.93
2023-01-30T04:52:44.184Z,27.30
2023-01-30T04:55:12.144Z,28.53
2023-01-30T04:57:39.105Z,27.60
2023-01-30T05:00:07.111Z,27.07
2023-01-30T05:02:36.887Z,27.80
2023-01-30T05:05:04.252Z,27.67
2023-01-30T05:07:31.317Z,26.33
2023-01-30T05:09:58.212Z,27.07
2023-01-30T05:12:25.254Z,25.50
2023-01-30T05:14:52.128Z,25.60
2023-01-30T05:17:19.087Z,26.07
2023-01-30T05:19:46.086Z,25.20
2023-01-30T05:22:13.074Z,26.10
2023-01-30T05:24:40.112Z,26.53
2023-01-30T05:27:07.029Z,24.73
2023-01-30T05:29:34.120Z,27.43
2023-01-30T05:32:01.031Z,26.57
2023-01-30T05:34:28.074Z,25.93
2023-01-30T05:36:55.163Z,27.03
2023-01-30T05:39:22.099Z,22.43
2023-01-30T05:41:48.992Z,23.37
2023-01-30T05:44:15.997Z,24.83
2023-01-30T05:46:42.975Z,24.93
2023-01-30T05:49:09.937Z,25.90
2023-01-30T05:51:36.828Z,23.43
2023-01-30T05:54:04.010Z,24.40
2023-01-30T05:56:33.362Z,25.93
2023-01-30T05:59:01.929Z,26.00
2023-01-30T06:01:29.466Z,23.63
2023-01-30T06:03:57.558Z,24.27
2023-01-30T06:06:25.610Z,24.67
2023-01-30T06:08:56.836Z,26.23
2023-01-30T06:11:24.570Z,28.93
2023-01-30T06:13:51.719Z,25.40
2023-01-30T06:16:19.495Z,23.57
2023-01-30T06:18:49.212Z,25.17
2023-01-30T06:21:16.714Z,26.50
2023-01-30T06:23:44.272Z,26.33
2023-01-30T06:26:11.330Z,25.43
2023-01-30T06:28:38.423Z,26.83
2023-01-30T06:31:08.937Z,25.53
2023-01-30T06:33:36.186Z,24.97
2023-01-30T06:36:03.452Z,22.57
2023-01-30T06:38:30.372Z,25.07
2023-01-30T06:40:57.307Z,25.83
2023-01-30T06:43:24.396Z,23.87
2023-01-30T06:45:51.381Z,24.23
2023-01-30T06:48:18.288Z,27.43
2023-01-30T06:50:47.939Z,26.67
2023-01-30T06:53:14.977Z,28.40
2023-01-30T06:55:41.903Z,27.70
2023-01-30T06:58:13.985Z,26.17
2023-01-30T07:00:42.643Z,27.27
2023-01-30T07:03:14.754Z,27.27
2023-01-30T07:05:43.273Z,27.20
2023-01-30T07:08:10.712Z,27.00
2023-01-30T07:10:38.627Z,26.33
2023-01-30T07:13:05.745Z,29.13
2023-01-30T07:15:32.765Z,26.17
2023-01-30T07:18:00.480Z,26.53
2023-01-30T07:20:27.604Z,26.37
2023-01-30T07:22:56.064Z,24.33
2023-01-30T07:25:25.018Z,31.70
2023-01-30T07:27:57.671Z,31.47
2023-01-30T07:30:25.780Z,26.97
2023-01-30T07:32:54.719Z,23.40
2023-01-30T07:35:25.715Z,22.07
2023-01-30T07:37:52.735Z,20.87
2023-01-30T07:40:20.687Z,18.13
2023-01-30T07:43:01.003Z,12.57
2023-01-30T07:45:34.863Z,8.93
2023-01-30T07:48:01.755Z,8.20
2023-01-30T07:50:28.805Z,6.23
2023-01-30T07:52:55.913Z,6.77
2023-01-30T07:55:22.941Z,5.60
2023-01-30T07:57:50.084Z,5.03
2023-01-30T08:00:18.256Z,4.93
2023-01-30T08:02:45.394Z,5.07
2023-01-30T08:05:12.397Z,4.43
2023-01-30T08:07:39.314Z,5.20
2023-01-30T08:10:06.880Z,5.80
2023-01-30T08:12:33.891Z,6.10
2023-01-30T08:15:01.016Z,6.33
2023-01-30T08:17:27.884Z,5.50
2023-01-30T08:19:54.713Z,5.87
2023-01-30T08:22:21.822Z,5.17
2023-01-30T08:24:48.782Z,5.67
2023-01-30T08:27:15.979Z,5.00
2023-01-30T08:29:43.783Z,4.83
2023-01-30T08:32:10.773Z,4.63
2023-01-30T08:34:37.688Z,4.40
2023-01-30T08:37:04.587Z,4.00
2023-01-30T08:39:31.607Z,6.47
2023-01-30T08:41:58.503Z,3.30
2023-01-30T08:44:25.425Z,3.03
2023-01-30T08:46:52.370Z,3.47
2023-01-30T08:49:19.325Z,3.23
2023-01-30T08:51:46.416Z,2.83
2023-01-30T08:54:13.388Z,3.53
2023-01-30T08:56:40.463Z,3.17
2023-01-30T08:59:07.861Z,2.63
2023-01-30T09:01:34.954Z,3.60
2023-01-30T09:04:02.029Z,3.50
2023-01-30T09:06:28.979Z,3.00
2023-01-30T09:08:55.863Z,3.47
2023-01-30T09:11:22.776Z,3.40
2023-01-30T09:13:49.929Z,3.17
2023-01-30T09:16:16.866Z,3.73
2023-01-30T09:18:45.178Z,3.77
2023-01-30T09:21:13.396Z,4.07
2023-01-30T09:23:40.517Z,5.80
2023-01-30T09:26:07.725Z,6.17
2023-01-30T09:28:35.155Z,3.97
2023-01-30T09:31:02.410Z,4.00
2023-01-30T09:33:29.513Z,3.10
2023-01-30T09:35:56.922Z,4.27
2023-01-30T09:38:24.100Z,3.37
2023-01-30T09:40:59.558Z,3.73
2023-01-30T09:43:59.654Z,4.53
2023-01-30T09:47:02.364Z,3.43
2023-01-30T09:49:49.317Z,3.20
2023-01-30T09:52:26.723Z,3.97
2023-01-30T09:55:18.402Z,4.10
2023-01-30T09:57:48.638Z,4.50
2023-01-30T10:00:35.892Z,4.00
2023-01-30T10:03:08.713Z,3.67
2023-01-30T10:05:40.946Z,3.53
2023-01-30T10:08:32.713Z,3.47
2023-01-30T10:11:14.684Z,3.90
2023-01-30T10:14:19.257Z,4.37
2023-01-30T10:17:07.960Z,4.60
2023-01-30T10:19:40.803Z,4.33
2023-01-30T10:22:35.388Z,3.00
2023-01-30T10:25:34.345Z,4.33
2023-01-30T10:28:12.922Z,3.97
2023-01-30T10:30:40.239Z,3.77
2023-01-30T10:33:45.348Z,3.90
2023-01-30T10:36:32.733Z,4.00
2023-01-30T10:39:02.753Z,3.50
2023-01-30T10:41:44.047Z,3.37
2023-01-30T10:44:13.700Z,5.30
2023-01-30T10:46:46.851Z,3.97
2023-01-30T10:49:40.760Z,3.83
2023-01-30T10:52:45.414Z,3.67
2023-01-30T10:55:36.758Z,4.07
2023-01-30T10:58:26.627Z,4.67
2023-01-30T11:01:22.522Z,4.70
2023-01-30T11:04:23.098Z,4.40
2023-01-30T11:06:52.275Z,4.00
2023-01-30T11:09:19.235Z,5.07
2023-01-30T11:11:54.621Z,4.13
2023-01-30T11:14:21.661Z,4.17
2023-01-30T11:16:53.273Z,4.30
2023-01-30T11:19:31.159Z,3.67
2023-01-30T11:22:02.801Z,3.67
2023-01-30T11:24:41.387Z,3.60
2023-01-30T11:27:24.260Z,4.53
2023-01-30T11:30:07.238Z,3.93
2023-01-30T11:32:34.244Z,4.87
2023-01-30T11:35:06.963Z,3.87
2023-01-30T11:37:37.296Z,3.90
2023-01-30T11:40:26.329Z,4.43
2023-01-30T11:43:02.119Z,3.60
2023-01-30T11:45:30.665Z,3.20
2023-01-30T11:48:05.298Z,4.47
2023-01-30T11:50:49.448Z,3.93
2023-01-30T11:53:44.621Z,3.13
2023-01-30T11:56:22.762Z,4.07
2023-01-30T11:58:58.727Z,3.30
2023-01-30T12:01:29.225Z,4.40
2023-01-30T12:03:58.204Z,3.83
2023-01-30T12:06:37.083Z,3.40
2023-01-30T12:09:04.741Z,2.90
2023-01-30T12:11:40.150Z,3.20
2023-01-30T12:14:32.421Z,4.07
2023-01-30T12:17:21.390Z,3.90
2023-01-30T12:20:03.549Z,3.40
2023-01-30T12:22:36.277Z,3.93
2023-01-30T12:25:20.293Z,3.50
2023-01-30T12:28:15.878Z,4.00
2023-01-30T12:30:56.402Z,3.67
2023-01-30T12:33:28.531Z,3.60
2023-01-30T12:36:13.866Z,3.60
2023-01-30T12:39:06.021Z,3.53
2023-01-30T12:41:58.978Z,4.20
2023-01-30T12:44:45.065Z,3.63
2023-01-30T12:47:22.155Z,2.90
2023-01-30T12:50:24.793Z,3.63
2023-01-30T12:53:23.785Z,3.90
2023-01-30T12:55:59.538Z,3.63
2023-01-30T12:58:32.311Z,3.80
2023-01-30T13:01:25.105Z,3.00
2023-01-30T13:04:19.103Z,3.70
2023-01-30T13:06:52.077Z,3.90
2023-01-30T13:09:38.338Z,3.60
2023-01-30T13:12:15.409Z,3.50
2023-01-30T13:14:56.242Z,3.37
2023-01-30T13:17:48.344Z,3.90
2023-01-30T13:20:36.529Z,4.30
2023-01-30T13:23:15.366Z,3.37
2023-01-30T13:25:56.340Z,3.47
2023-01-30T13:28:26.544Z,3.13
2023-01-30T13:30:55.331Z,3.90
2023-01-30T13:33:30.724Z,3.43
2023-01-30T13:36:36.313Z,3.63
2023-01-30T13:41:48.677Z,3.50
2023-01-30T13:44:27.609Z,3.10
2023-01-30T13:46:56.792Z,4.13
2023-01-30T13:49:42.949Z,3.53
2023-01-30T13:52:20.652Z,3.93
2023-01-30T13:54:50.561Z,3.63
2023-01-30T13:57:29.318Z,3.17
2023-01-30T14:00:28.191Z,3.97
2023-01-30T14:03:04.206Z,3.73
2023-01-30T14:06:00.874Z,3.70
2023-01-30T14:08:46.908Z,3.83
2023-01-30T14:11:38.162Z,4.00
2023-01-30T14:14:06.825Z,3.77
2023-01-30T14:16:42.305Z,4.43
2023-01-30T14:19:33.583Z,3.77
2023-01-30T14:22:20.861Z,3.70
2023-01-30T14:25:22.914Z,4.50
2023-01-30T14:27:52.836Z,3.90
2023-01-30T14:30:32.106Z,3.10
2023-01-30T14:33:01.681Z,3.90
2023-01-30T14:35:31.163Z,4.00
2023-01-30T14:38:27.835Z,3.30
2023-01-30T14:41:00.642Z,3.53
2023-01-30T14:43:42.842Z,2.53
2023-01-30T14:46:18.732Z,2.67
2023-01-30T14:48:55.280Z,3.70
2023-01-30T14:51:31.139Z,2.83
2023-01-30T14:54:23.418Z,3.70
2023-01-30T14:57:08.314Z,2.80
2023-01-30T14:59:37.876Z,2.93
2023-01-30T15:02:13.863Z,2.83
2023-01-30T15:05:05.740Z,2.90
2023-01-30T15:08:03.840Z,2.70
2023-01-30T15:10:48.867Z,3.30
2023-01-30T15:14:00.923Z,3.13
2023-01-30T15:16:41.789Z,3.07
2023-01-30T15:19:11.802Z,3.17
2023-01-30T15:22:06.199Z,3.33
2023-01-30T15:24:45.097Z,3.37
2023-01-30T15:27:46.981Z,4.13
2023-01-30T15:31:08.924Z,4.63
2023-01-30T15:33:45.319Z,4.40
2023-01-30T15:36:24.993Z,3.53
2023-01-30T15:39:04.426Z,3.47
2023-01-30T15:41:37.843Z,3.90
2023-01-30T15:44:14.415Z,3.37
2023-01-30T15:47:04.847Z,4.03
2023-01-30T15:49:53.693Z,4.07
2023-01-30T15:52:23.635Z,4.77
2023-01-30T15:54:56.948Z,3.87
2023-01-30T15:57:31.689Z,3.60
2023-01-30T15:59:59.317Z,3.97
2023-01-30T16:02:33.265Z,3.63
2023-01-30T16:05:18.043Z,3.93
2023-01-30T16:07:47.507Z,3.87
2023-01-30T16:10:25.311Z,5.00
2023-01-30T16:12:56.040Z,3.67
2023-01-30T16:15:46.454Z,4.70
2023-01-30T16:18:36.689Z,4.03
2023-01-30T16:21:26.363Z,3.93
2023-01-30T16:24:05.658Z,4.40
2023-01-30T16:26:36.881Z,10.17
2023-01-30T16:29:07.673Z,9.67
2023-01-30T16:31:38.655Z,7.70
2023-01-30T16:34:05.920Z,5.67
2023-01-30T16:36:39.734Z,7.83
2023-01-30T16:39:43.025Z,7.13
2023-01-30T16:42:39.502Z,5.77
2023-01-30T16:45:35.543Z,7.30
2023-01-30T16:48:17.263Z,7.73
2023-01-30T16:50:50.359Z,11.40
2023-01-30T16:53:22.104Z,7.63
2023-01-30T16:56:10.780Z,11.87
2023-01-30T16:58:38.577Z,6.87
2023-01-30T17:01:08.417Z,6.93
2023-01-30T17:03:38.991Z,9.30
2023-01-30T17:06:16.257Z,5.20
2023-01-30T17:09:02.257Z,3.73
2023-01-30T17:11:29.256Z,5.40
2023-01-30T17:14:14.544Z,4.43
2023-01-30T17:16:43.059Z,6.07
2023-01-30T17:19:10.122Z,4.23
2023-01-30T17:21:51.239Z,4.23
2023-01-30T17:24:23.765Z,4.50
2023-01-30T17:26:59.168Z,4.60
2023-01-30T17:29:44.131Z,4.47
2023-01-30T17:32:14.112Z,5.57
2023-01-30T17:34:41.449Z,6.97
2023-01-30T17:37:16.969Z,6.17
2023-01-30T17:39:44.395Z,5.07
2023-01-30T17:42:13.064Z,6.53
2023-01-30T17:44:40.633Z,5.23
2023-01-30T17:47:12.562Z,4.30
2023-01-30T17:49:40.192Z,3.60
2023-01-30T17:52:07.370Z,5.00
2023-01-30T17:54:36.359Z,4.57
2023-01-30T17:57:09.700Z,4.83
2023-01-30T17:59:36.685Z,5.40
2023-01-30T18:02:03.818Z,3.93
2023-01-30T18:04:30.821Z,4.43
2023-01-30T18:07:06.344Z,4.90
2023-01-30T18:09:33.358Z,4.80
2023-01-30T18:12:00.305Z,5.00
2023-01-30T18:14:27.409Z,4.47
2023-01-30T18:17:00.100Z,5.43
2023-01-30T18:19:28.944Z,6.20
2023-01-30T18:21:58.265Z,4.73
2023-01-30T18:24:25.235Z,5.03
2023-01-30T18:26:52.230Z,5.33
2023-01-30T18:29:19.194Z,4.63
2023-01-30T18:31:46.368Z,5.67
2023-01-30T18:34:13.508Z,4.87
2023-01-30T18:36:40.655Z,5.00
2023-01-30T18:39:08.039Z,5.10
2023-01-30T18:41:37.673Z,4.90
2023-01-30T18:44:06.359Z,7.23
2023-01-30T18:46:34.206Z,9.40
2023-01-30T18:49:01.203Z,5.23
2023-01-30T18:51:33.944Z,4.60
2023-01-30T18:54:01.943Z,6.10
2023-01-30T18:56:34.125Z,5.00
2023-01-30T18:59:04.104Z,5.67
2023-01-30T19:01:40.153Z,5.37
2023-01-30T19:04:10.003Z,5.03
2023-01-30T19:06:39.372Z,5.00
2023-01-30T19:09:07.478Z,5.20
2023-01-30T19:11:52.920Z,4.50
2023-01-30T19:14:19.952Z,4.87
2023-01-30T19:16:47.564Z,4.97
2023-01-30T19:19:14.663Z,4.97
2023-01-30T19:21:41.646Z,5.10
2023-01-30T19:24:13.515Z,4.87
2023-01-30T19:26:40.632Z,4.83
2023-01-30T19:29:08.019Z,4.50
2023-01-30T19:31:35.172Z,5.13
2023-01-30T19:34:06.115Z,4.30
2023-01-30T19:36:34.711Z,4.60
2023-01-30T19:39:03.666Z,4.80
2023-01-30T19:41:33.071Z,4.33
2023-01-30T19:44:02.058Z,5.20
2023-01-30T19:46:29.512Z,5.50
2023-01-30T19:48:57.285Z,4.30
2023-01-30T19:51:32.256Z,4.97
2023-01-30T19:54:01.890Z,4.50
2023-01-30T19:56:29.596Z,4.00
2023-01-30T19:58:58.724Z,4.80
2023-01-30T20:01:29.700Z,4.50
2023-01-30T20:03:57.718Z,4.20
2023-01-30T20:06:30.839Z,4.27
2023-01-30T20:09:03.816Z,7.03
2023-01-30T20:11:31.409Z,5.80
2023-01-30T20:13:59.176Z,8.93
2023-01-30T20:16:27.752Z,7.00
2023-01-30T20:19:00.076Z,6.13
2023-01-30T20:21:29.048Z,7.63
2023-01-30T20:23:56.898Z,5.47
2023-01-30T20:26:27.222Z,7.70
2023-01-30T20:28:55.153Z,5.83
2023-01-30T20:31:24.951Z,6.07
2023-01-30T20:33:53.180Z,6.33
2023-01-30T20:36:20.493Z,5.93
2023-01-30T20:38:49.141Z,5.80
2023-01-30T20:41:21.295Z,4.83
2023-01-30T20:43:51.509Z,6.37
2023-01-30T20:46:20.822Z,5.37
2023-01-30T20:48:48.758Z,5.40
2023-01-30T20:51:24.825Z,6.20
2023-01-30T20:53:54.490Z,6.13
2023-01-30T20:56:23.036Z,5.40
2023-01-30T20:58:50.790Z,5.90
2023-01-30T21:01:22.991Z,6.83
2023-01-30T21:03:53.448Z,5.10
2023-01-30T21:06:37.081Z,5.67
2023-01-30T21:09:15.453Z,7.10
2023-01-30T21:11:42.490Z,6.37
2023-01-30T21:14:09.546Z,7.90
2023-01-30T21:16:39.941Z,5.53
2023-01-30T21:19:10.033Z,6.07
2023-01-30T21:21:53.576Z,5.30
2023-01-30T21:24:29.781Z,5.73
2023-01-30T21:26:57.701Z,4.33
2023-01-30T21:29:27.196Z,4.90
2023-01-30T21:31:55.757Z,4.60
2023-01-30T21:34:23.256Z,5.27
2023-01-30T21:37:08.699Z,5.40
2023-01-30T21:39:54.694Z,4.77
2023-01-30T21:42:40.507Z,4.63
2023-01-30T21:45:08.091Z,5.60
2023-01-30T21:47:35.054Z,4.97
2023-01-30T21:50:02.123Z,4.60
2023-01-30T21:52:32.014Z,5.73
2023-01-30T21:54:59.028Z,4.77
2023-01-30T21:57:26.108Z,4.70
2023-01-30T21:59:53.062Z,4.50
2023-01-30T22:02:20.004Z,5.47
2023-01-30T22:04:47.004Z,4.67
2023-01-30T22:07:14.147Z,4.60
2023-01-30T22:09:41.268Z,4.60
2023-01-30T22:12:08.201Z,4.50
2023-01-30T22:14:36.315Z,4.90
2023-01-30T22:17:03.490Z,4.37
2023-01-30T22:19:35.606Z,4.63
2023-01-30T22:22:03.623Z,4.30
2023-01-30T22:24:30.744Z,4.60
2023-01-30T22:26:57.783Z,4.53
2023-01-30T22:29:24.850Z,5.03
2023-01-30T22:31:51.954Z,4.30
2023-01-30T22:34:19.239Z,4.00
2023-01-30T22:36:47.826Z,4.50
2023-01-30T22:39:14.768Z,5.13
2023-01-30T22:41:41.878Z,4.90
2023-01-30T22:44:09.913Z,5.13
2023-01-30T22:46:39.492Z,3.97
2023-01-30T22:49:08.322Z,5.20
2023-01-30T22:51:38.416Z,4.23
2023-01-30T22:54:11.033Z,4.13
2023-01-30T22:56:43.592Z,4.30
2023-01-30T22:59:11.098Z,4.93
2023-01-30T23:01:43.575Z,4.87
2023-01-30T23:04:13.233Z,5.07
2023-01-30T23:06:41.034Z,4.50
2023-01-30T23:09:09.537Z,5.93
2023-01-30T23:11:40.515Z,5.13
2023-01-30T23:14:16.478Z,4.43
2023-01-30T23:16:44.970Z,4.90
2023-01-30T23:19:13.490Z,4.60
2023-01-30T23:21:45.479Z,4.93
2023-01-30T23:24:15.403Z,5.63
2023-01-30T23:26:48.763Z,5.07
2023-01-30T23:29:18.397Z,5.00
2023-01-30T23:31:46.796Z,4.17
2023-01-30T23:34:17.086Z,4.43
2023-01-30T23:36:44.902Z,5.07
2023-01-30T23:39:13.484Z,4.60
2023-01-30T23:41:41.734Z,4.27
2023-01-30T23:44:09.126Z,4.87
2023-01-30T23:46:39.077Z,4.93
2023-01-30T23:49:08.620Z,4.93
2023-01-30T23:51:37.510Z,4.97
2023-01-30T23:54:05.583Z,4.30
2023-01-30T23:56:36.198Z,5.90
2023-01-30T23:59:04.248Z,4.57
